createdAt,value
2019-05-15T00:01:15.099Z,16.50
2019-05-15T00:03:46.348Z,17.30
2019-05-15T00:06:19.061Z,15.68
2019-05-15T00:08:50.577Z,17.05
2019-05-15T00:11:23.030Z,18.37
2019-05-15T00:13:55.470Z,17.07
2019-05-15T00:16:29.206Z,17.87
2019-05-15T00:19:00.867Z,16.85
2019-05-15T00:21:32.153Z,17.42
2019-05-15T00:24:03.503Z,17.82
2019-05-15T00:26:38.518Z,16.37
2019-05-15T00:29:15.799Z,18.27
2019-05-15T00:31:43.670Z,18.42
2019-05-15T00:34:15.509Z,18.37
2019-05-15T00:36:48.929Z,18.40
2019-05-15T00:39:19.741Z,20.08
2019-05-15T00:41:54.581Z,18.90
2019-05-15T00:44:23.799Z,21.95
2019-05-15T00:46:55.543Z,20.95
2019-05-15T00:49:28.956Z,22.50
2019-05-15T00:52:00.701Z,20.90
2019-05-15T00:54:33.079Z,20.20
2019-05-15T00:57:05.036Z,20.23
2019-05-15T00:59:36.181Z,18.98
2019-05-15T01:02:08.682Z,20.12
2019-05-15T01:04:40.199Z,20.75
2019-05-15T01:07:11.964Z,20.82
2019-05-15T01:09:43.606Z,22.25
2019-05-15T01:12:18.513Z,20.37
2019-05-15T01:14:50.197Z,20.30
2019-05-15T01:17:22.155Z,22.00
2019-05-15T01:19:53.504Z,19.80
2019-05-15T01:22:28.520Z,20.85
2019-05-15T01:24:59.056Z,18.65
2019-05-15T01:27:32.442Z,18.82
2019-05-15T01:30:04.653Z,18.57
2019-05-15T01:32:36.286Z,18.25
2019-05-15T01:35:09.796Z,18.60
2019-05-15T01:37:40.826Z,19.80
2019-05-15T01:40:12.272Z,27.32
2019-05-15T01:42:43.626Z,26.57
2019-05-15T01:45:18.827Z,21.15
2019-05-15T01:47:49.799Z,20.37
2019-05-15T01:50:21.249Z,23.05
2019-05-15T01:52:52.686Z,22.48
2019-05-15T01:55:24.151Z,23.35
2019-05-15T01:57:58.097Z,25.70
2019-05-15T02:00:28.469Z,22.42
2019-05-15T02:02:59.937Z,24.15
2019-05-15T02:05:31.371Z,23.67
2019-05-15T02:08:03.146Z,23.02
2019-05-15T02:10:34.697Z,24.05
2019-05-15T02:13:08.521Z,23.65
2019-05-15T02:15:40.931Z,22.90
2019-05-15T02:18:14.308Z,23.65
2019-05-15T02:20:45.926Z,22.35
2019-05-15T02:23:19.640Z,21.42
2019-05-15T02:25:50.886Z,23.42
2019-05-15T02:28:25.027Z,22.70
2019-05-15T02:30:58.685Z,22.58
2019-05-15T02:33:30.106Z,21.65
2019-05-15T02:36:01.664Z,21.55
2019-05-15T02:38:34.810Z,23.45
2019-05-15T02:41:09.688Z,22.27
2019-05-15T02:43:39.471Z,23.02
2019-05-15T02:46:12.103Z,21.57
2019-05-15T02:48:43.796Z,19.37
2019-05-15T02:51:15.214Z,19.65
2019-05-15T02:53:49.757Z,20.20
2019-05-15T02:56:20.510Z,19.27
2019-05-15T02:58:51.914Z,20.75
2019-05-15T03:01:24.284Z,23.75
2019-05-15T03:03:55.734Z,20.72
2019-05-15T03:06:29.800Z,19.48
2019-05-15T03:09:03.355Z,20.45
2019-05-15T03:11:35.748Z,19.73
2019-05-15T03:14:09.298Z,19.95
2019-05-15T03:16:40.161Z,18.02
2019-05-15T03:19:11.605Z,18.32
2019-05-15T03:21:43.140Z,16.80
2019-05-15T03:24:15.741Z,17.40
2019-05-15T03:26:49.710Z,19.02
2019-05-15T03:29:21.135Z,16.82
2019-05-15T03:32:07.524Z,16.07
2019-05-15T03:34:30.708Z,15.68
2019-05-15T03:37:03.611Z,15.60
2019-05-15T03:39:31.813Z,16.48
2019-05-15T03:42:03.267Z,16.02
2019-05-15T03:44:35.021Z,14.50
2019-05-15T03:47:14.968Z,14.30
2019-05-15T03:49:49.157Z,14.50
2019-05-15T03:52:19.532Z,14.68
2019-05-15T03:54:50.963Z,16.07
2019-05-15T03:57:23.263Z,15.85
2019-05-15T03:59:55.071Z,18.07
2019-05-15T04:02:28.798Z,21.52
2019-05-15T04:05:01.654Z,25.65
2019-05-15T04:07:32.306Z,20.43
2019-05-15T04:10:03.866Z,17.02
2019-05-15T04:12:35.123Z,16.30
2019-05-15T04:15:09.810Z,18.15
2019-05-15T04:17:49.006Z,18.17
2019-05-15T04:20:14.339Z,17.75
2019-05-15T04:22:49.009Z,18.50
2019-05-15T04:25:19.418Z,17.85
2019-05-15T04:27:50.972Z,17.07
2019-05-15T04:30:25.401Z,17.07
2019-05-15T04:32:59.483Z,17.23
2019-05-15T04:35:30.749Z,17.70
2019-05-15T04:38:01.974Z,16.85
2019-05-15T04:40:33.123Z,17.02
2019-05-15T04:43:04.385Z,16.48
2019-05-15T04:45:38.985Z,15.75
2019-05-15T04:48:10.336Z,16.32
2019-05-15T04:50:41.784Z,15.70
2019-05-15T04:53:19.271Z,16.48
2019-05-15T04:55:49.715Z,15.50
2019-05-15T04:58:21.381Z,13.90
2019-05-15T05:00:53.896Z,13.80
2019-05-15T05:03:25.079Z,13.43
2019-05-15T05:05:59.124Z,14.03
2019-05-15T05:08:29.981Z,14.90
2019-05-15T05:11:02.209Z,12.73
2019-05-15T05:13:33.440Z,13.50
2019-05-15T05:16:09.216Z,11.88
2019-05-15T05:18:41.159Z,11.95
2019-05-15T05:21:12.216Z,11.53
2019-05-15T05:23:45.078Z,12.70
2019-05-15T05:26:18.630Z,12.28
2019-05-15T05:28:49.646Z,11.38
2019-05-15T05:31:21.294Z,11.50
2019-05-15T05:33:52.624Z,11.20
2019-05-15T05:36:24.194Z,10.95
2019-05-15T05:38:58.295Z,10.82
2019-05-15T05:41:30.165Z,11.48
2019-05-15T05:44:04.668Z,10.05
2019-05-15T05:46:36.137Z,10.43
2019-05-15T05:49:08.087Z,10.50
2019-05-15T05:51:39.590Z,11.25
2019-05-15T05:54:10.755Z,9.85
2019-05-15T05:56:42.094Z,10.23
2019-05-15T05:59:14.638Z,10.08
2019-05-15T06:01:48.157Z,9.40
2019-05-15T06:04:19.061Z,10.25
2019-05-15T06:07:06.154Z,9.65
2019-05-15T06:09:23.792Z,9.63
2019-05-15T06:11:55.231Z,9.13
2019-05-15T06:14:28.726Z,9.33
2019-05-15T06:17:00.005Z,9.33
2019-05-15T06:19:31.836Z,6.33
2019-05-15T06:22:04.953Z,6.40
2019-05-15T06:24:37.918Z,6.40
2019-05-15T06:27:09.483Z,5.70
2019-05-15T06:29:41.016Z,6.97
2019-05-15T06:32:12.588Z,7.45
2019-05-15T06:34:43.938Z,7.17
2019-05-15T06:37:15.284Z,7.22
2019-05-15T06:39:48.125Z,7.95
2019-05-15T06:42:19.874Z,7.50
2019-05-15T06:44:51.373Z,7.05
2019-05-15T06:47:22.824Z,6.25
2019-05-15T06:49:54.399Z,6.75
2019-05-15T06:52:28.290Z,4.67
2019-05-15T06:55:00.353Z,4.00
2019-05-15T06:57:31.667Z,4.12
2019-05-15T07:00:03.943Z,3.83
2019-05-15T07:02:37.930Z,4.03
2019-05-15T07:05:08.611Z,4.12
2019-05-15T07:07:41.867Z,4.35
2019-05-15T07:10:14.555Z,3.60
2019-05-15T07:12:48.495Z,3.80
2019-05-15T07:15:19.027Z,3.58
2019-05-15T07:17:50.351Z,3.85
2019-05-15T07:20:22.247Z,4.33
2019-05-15T07:22:53.593Z,4.83
2019-05-15T07:25:29.199Z,5.35
2019-05-15T07:27:59.788Z,4.97
2019-05-15T07:30:33.031Z,5.28
2019-05-15T07:33:08.596Z,5.47
2019-05-15T07:35:40.355Z,4.70
2019-05-15T07:38:11.709Z,4.65
2019-05-15T07:40:43.147Z,4.72
2019-05-15T07:43:14.906Z,5.40
2019-05-15T07:45:52.458Z,5.45
2019-05-15T07:48:19.233Z,5.70
2019-05-15T07:50:50.797Z,5.83
2019-05-15T07:53:22.327Z,6.62
2019-05-15T07:55:54.262Z,5.45
2019-05-15T07:58:27.737Z,6.15
2019-05-15T08:00:59.153Z,6.87
2019-05-15T08:03:30.823Z,7.03
2019-05-15T08:06:05.283Z,7.28
2019-05-15T08:08:39.107Z,9.65
2019-05-15T08:11:20.476Z,11.38
2019-05-15T08:13:44.290Z,11.57
2019-05-15T08:16:17.960Z,11.83
2019-05-15T08:18:48.928Z,10.50
2019-05-15T08:21:20.207Z,9.93
2019-05-15T08:23:51.807Z,12.73
2019-05-15T08:26:23.982Z,9.58
2019-05-15T08:28:57.810Z,9.95
2019-05-15T08:31:28.911Z,10.55
2019-05-15T08:34:12.686Z,11.33
2019-05-15T08:36:33.314Z,11.50
2019-05-15T08:39:08.483Z,11.83
2019-05-15T08:41:39.664Z,13.03
2019-05-15T08:44:11.854Z,12.10
2019-05-15T08:46:44.372Z,10.58
2019-05-15T08:49:16.065Z,12.00
2019-05-15T08:51:48.730Z,9.45
2019-05-15T08:54:23.979Z,10.65
2019-05-15T08:56:55.433Z,9.65
2019-05-15T08:59:29.251Z,8.20
2019-05-15T09:02:01.491Z,8.38
2019-05-15T09:04:35.169Z,8.28
2019-05-15T09:07:09.266Z,9.35
2019-05-15T09:09:48.803Z,9.58
2019-05-15T09:12:20.420Z,10.13
2019-05-15T09:14:51.971Z,9.40
2019-05-15T09:17:28.577Z,8.30
2019-05-15T09:20:04.175Z,8.80
2019-05-15T09:22:38.254Z,7.72
2019-05-15T09:25:09.883Z,7.35
2019-05-15T09:27:41.205Z,7.08
2019-05-15T09:30:13.780Z,6.87
2019-05-15T09:32:45.435Z,5.70
2019-05-15T09:35:21.188Z,6.08
2019-05-15T09:37:52.537Z,6.62
2019-05-15T09:40:37.895Z,6.62
2019-05-15T09:42:57.830Z,6.42
2019-05-15T09:45:29.450Z,6.30
2019-05-15T09:48:00.791Z,6.90
2019-05-15T09:50:32.250Z,7.40
2019-05-15T09:53:03.708Z,8.13
2019-05-15T09:55:37.982Z,7.60
2019-05-15T09:58:09.293Z,6.55
2019-05-15T10:00:40.712Z,6.70
2019-05-15T10:03:12.266Z,5.83
2019-05-15T10:05:44.620Z,6.40
2019-05-15T10:08:16.183Z,6.20
2019-05-15T10:10:48.802Z,6.47
2019-05-15T10:13:20.313Z,6.42
2019-05-15T10:15:52.052Z,6.35
2019-05-15T10:18:23.417Z,6.30
2019-05-15T10:20:55.057Z,7.37
2019-05-15T10:23:28.872Z,6.53
2019-05-15T10:25:59.342Z,6.70
2019-05-15T10:28:30.553Z,7.42
2019-05-15T10:31:02.923Z,6.83
2019-05-15T10:33:34.283Z,7.00
2019-05-15T10:36:08.302Z,6.70
2019-05-15T10:38:39.215Z,7.45
2019-05-15T10:41:15.014Z,6.62
2019-05-15T10:43:47.031Z,6.60
2019-05-15T10:46:19.057Z,6.30
2019-05-15T10:48:50.761Z,6.30
2019-05-15T10:51:22.200Z,5.97
2019-05-15T10:53:54.396Z,6.55
2019-05-15T10:56:25.832Z,6.42
2019-05-15T10:58:59.078Z,6.47
2019-05-15T11:01:30.751Z,6.40
2019-05-15T11:04:02.527Z,6.00
2019-05-15T11:06:34.273Z,6.85
2019-05-15T11:09:08.390Z,6.58
2019-05-15T11:11:39.834Z,6.37
2019-05-15T11:14:12.013Z,7.08
2019-05-15T11:16:44.369Z,7.37
2019-05-15T11:19:15.835Z,6.37
2019-05-15T11:21:48.496Z,6.15
2019-05-15T11:24:20.988Z,7.30
2019-05-15T11:26:55.651Z,6.20
2019-05-15T11:29:25.186Z,7.03
2019-05-15T11:31:58.059Z,6.70
2019-05-15T11:34:29.474Z,7.12
2019-05-15T11:37:02.543Z,6.33
2019-05-15T11:39:33.984Z,6.90
2019-05-15T11:42:05.342Z,6.53
2019-05-15T11:44:38.722Z,15.30
2019-05-15T11:47:09.653Z,6.70
2019-05-15T11:49:42.858Z,7.25
2019-05-15T11:52:14.420Z,7.45
2019-05-15T11:54:45.679Z,11.33
2019-05-15T11:57:19.080Z,7.22
2019-05-15T11:59:55.197Z,7.55
2019-05-15T12:02:25.230Z,7.30
2019-05-15T12:04:58.369Z,7.67
2019-05-15T12:07:30.373Z,7.22
2019-05-15T12:10:02.880Z,6.67
2019-05-15T12:12:34.141Z,6.85
2019-05-15T12:15:05.877Z,6.55
2019-05-15T12:17:39.032Z,6.80
2019-05-15T12:20:11.242Z,7.92
2019-05-15T12:22:42.552Z,7.75
2019-05-15T12:25:14.049Z,7.70
2019-05-15T12:27:45.597Z,7.47
2019-05-15T12:30:19.334Z,7.47
2019-05-15T12:32:49.558Z,7.97
2019-05-15T12:35:20.808Z,8.80
2019-05-15T12:37:52.258Z,8.80
2019-05-15T13:01:44.146Z,9.55
2019-05-15T13:04:20.004Z,9.28
2019-05-15T13:07:11.868Z,9.13
2019-05-15T13:09:34.629Z,9.13
2019-05-15T13:12:14.001Z,9.68
2019-05-15T13:14:52.448Z,9.75
2019-05-15T13:17:31.641Z,9.85
2019-05-15T13:20:09.748Z,10.05
2019-05-15T13:22:55.073Z,9.33
2019-05-15T13:25:29.463Z,9.63
2019-05-15T13:28:22.160Z,9.98
2019-05-15T13:31:02.097Z,9.10
2019-05-15T13:33:39.376Z,10.18
2019-05-15T13:36:13.405Z,9.23
2019-05-15T13:38:54.076Z,9.25
2019-05-15T13:41:44.105Z,8.65
2019-05-15T13:44:22.754Z,9.95
2019-05-15T13:46:59.884Z,10.30
2019-05-15T13:49:35.576Z,10.23
2019-05-15T13:52:15.547Z,11.03
2019-05-15T13:54:54.565Z,10.80
2019-05-15T13:57:41.705Z,9.88
2019-05-15T14:00:21.432Z,10.60
2019-05-15T14:03:01.928Z,11.45
2019-05-15T14:05:50.377Z,11.60
2019-05-15T14:08:30.557Z,11.18
2019-05-15T14:11:14.783Z,12.70
2019-05-15T14:14:09.326Z,11.73
2019-05-15T14:23:02.240Z,14.55
2019-05-15T14:28:52.156Z,13.13
2019-05-15T14:31:32.231Z,13.00
2019-05-15T14:34:08.757Z,14.10
2019-05-15T14:36:40.716Z,13.32
2019-05-15T14:39:13.388Z,14.25
2019-05-15T14:41:45.846Z,14.87
2019-05-15T14:44:21.262Z,14.20
2019-05-15T14:46:50.869Z,15.03
2019-05-15T14:49:22.731Z,14.73
2019-05-15T14:52:05.710Z,17.05
2019-05-15T14:54:29.066Z,15.53
2019-05-15T14:57:00.515Z,15.35
2019-05-15T14:59:32.157Z,15.32
2019-05-15T15:02:03.813Z,14.60
2019-05-15T15:04:39.115Z,14.83
2019-05-15T15:07:11.035Z,15.05
2019-05-15T15:09:42.564Z,15.05
2019-05-15T15:12:14.532Z,13.85
2019-05-15T15:14:48.522Z,14.53
2019-05-15T15:17:21.525Z,13.62
2019-05-15T15:19:53.257Z,11.85
2019-05-15T15:22:28.383Z,11.93
2019-05-15T15:24:59.751Z,11.65
2019-05-15T15:27:32.556Z,11.57
2019-05-15T15:30:09.162Z,10.13
2019-05-15T15:32:42.574Z,9.60
2019-05-15T15:35:14.051Z,9.65
2019-05-15T15:37:48.706Z,9.03
2019-05-15T15:40:20.350Z,9.40
2019-05-15T15:42:51.837Z,10.68
2019-05-15T15:45:24.482Z,9.18
2019-05-15T15:47:56.029Z,7.67
2019-05-15T15:50:28.795Z,7.90
2019-05-15T15:53:00.886Z,7.15
2019-05-15T15:55:34.885Z,7.53
2019-05-15T15:58:08.513Z,6.75
2019-05-15T16:00:41.154Z,6.72
2019-05-15T16:03:12.359Z,6.85
2019-05-15T16:05:44.040Z,6.22
2019-05-15T16:08:18.913Z,6.30
2019-05-15T16:10:49.107Z,13.95
2019-05-15T16:13:20.755Z,6.20
2019-05-15T16:15:53.238Z,6.15
2019-05-15T16:18:25.610Z,6.58
2019-05-15T16:20:57.969Z,6.35
2019-05-15T16:23:29.442Z,6.53
2019-05-15T16:26:01.310Z,7.33
2019-05-15T16:28:34.602Z,6.70
2019-05-15T16:31:07.934Z,7.15
2019-05-15T16:33:39.587Z,6.30
2019-05-15T16:36:10.971Z,7.20
2019-05-15T16:38:42.754Z,6.60
2019-05-15T16:41:18.429Z,6.00
2019-05-15T16:43:49.543Z,6.55
2019-05-15T16:46:24.190Z,6.40
2019-05-15T16:48:54.180Z,5.75
2019-05-15T16:51:32.544Z,6.40
2019-05-15T16:54:03.928Z,6.83
2019-05-15T16:56:36.680Z,6.37
2019-05-15T16:59:09.932Z,5.92
2019-05-15T17:01:43.269Z,6.75
2019-05-15T17:04:18.023Z,6.67
2019-05-15T17:06:49.360Z,8.48
2019-05-15T17:09:21.831Z,7.40
2019-05-15T17:11:53.413Z,7.67
2019-05-15T17:14:25.279Z,7.67
2019-05-15T17:16:58.646Z,9.38
2019-05-15T17:19:30.023Z,7.90
2019-05-15T17:22:01.785Z,7.92
2019-05-15T17:24:33.747Z,9.05
2019-05-15T17:27:08.552Z,8.65
2019-05-15T17:29:39.006Z,18.35
2019-05-15T17:32:10.657Z,36.88
2019-05-15T17:34:44.203Z,26.15
2019-05-15T17:37:17.850Z,12.73
2019-05-15T17:40:00.225Z,12.03
2019-05-15T17:42:28.928Z,10.80
2019-05-15T17:45:04.251Z,11.40
2019-05-15T17:47:38.492Z,11.63
2019-05-15T17:50:10.992Z,10.65
2019-05-15T17:52:42.309Z,10.70
2019-05-15T17:55:13.752Z,12.65
2019-05-15T17:57:53.774Z,12.05
2019-05-15T18:00:21.297Z,14.80
2019-05-15T18:02:53.049Z,11.57
2019-05-15T18:05:25.169Z,12.35
2019-05-15T18:07:58.558Z,13.00
2019-05-15T18:10:30.136Z,13.48
2019-05-15T18:13:03.527Z,13.00
2019-05-15T18:15:35.521Z,12.68
2019-05-15T18:18:09.520Z,13.38
2019-05-15T18:20:41.088Z,12.43
2019-05-15T18:23:12.744Z,14.25
2019-05-15T18:25:45.225Z,17.02
2019-05-15T18:28:18.741Z,15.20
2019-05-15T18:30:51.704Z,14.35
2019-05-15T18:33:23.557Z,14.03
2019-05-15T18:35:55.109Z,14.55
2019-05-15T18:38:28.185Z,24.18
2019-05-15T18:40:59.431Z,24.55
2019-05-15T18:43:31.938Z,27.25
2019-05-15T18:46:03.283Z,30.95
2019-05-15T18:48:34.818Z,26.40
2019-05-15T18:51:08.127Z,19.37
2019-05-15T18:53:41.008Z,19.85
2019-05-15T18:56:13.673Z,17.92
2019-05-15T18:58:52.819Z,18.52
2019-05-15T19:01:24.261Z,21.05
2019-05-15T19:03:58.574Z,24.23
2019-05-15T19:06:30.043Z,19.67
2019-05-15T19:09:02.530Z,19.82
2019-05-15T19:11:38.278Z,18.07
2019-05-15T19:14:09.499Z,17.40
2019-05-15T19:16:40.849Z,18.07
2019-05-15T19:19:14.149Z,16.65
2019-05-15T19:21:45.400Z,18.30
2019-05-15T19:24:18.517Z,17.07
2019-05-15T19:26:49.722Z,17.05
2019-05-15T19:29:21.511Z,16.97
2019-05-15T19:31:53.437Z,18.05
2019-05-15T19:34:24.978Z,17.35
2019-05-15T19:36:58.162Z,18.45
2019-05-15T19:39:29.936Z,19.12
2019-05-15T19:42:01.309Z,19.92
2019-05-15T19:44:33.768Z,19.15
2019-05-15T19:47:05.149Z,18.32
2019-05-15T19:49:37.828Z,18.70
2019-05-15T19:52:09.564Z,18.80
2019-05-15T19:54:41.218Z,18.75
2019-05-15T19:57:14.143Z,41.48
2019-05-15T19:59:48.665Z,22.62
2019-05-15T20:02:19.872Z,19.40
2019-05-15T20:04:51.597Z,20.35
2019-05-15T20:07:24.028Z,18.70
2019-05-15T20:09:58.423Z,18.37
2019-05-15T20:12:30.712Z,23.05
2019-05-15T20:15:03.225Z,36.42
2019-05-15T20:17:35.801Z,23.40
2019-05-15T20:20:08.734Z,33.67
2019-05-15T20:22:41.361Z,22.80
2019-05-15T20:25:13.443Z,20.00
2019-05-15T20:27:44.705Z,19.02
2019-05-15T20:30:18.098Z,19.40
2019-05-15T20:32:49.186Z,18.23
2019-05-15T20:35:20.453Z,18.57
2019-05-15T20:37:52.873Z,18.20
2019-05-15T20:40:24.927Z,18.35
2019-05-15T20:42:58.975Z,42.90
2019-05-15T20:45:37.606Z,37.17
2019-05-15T20:48:09.203Z,25.77
2019-05-15T20:50:40.861Z,19.85
2019-05-15T20:53:12.156Z,21.60
2019-05-15T20:55:44.159Z,18.92
2019-05-15T20:58:15.513Z,19.40
2019-05-15T21:00:49.410Z,21.33
2019-05-15T21:03:19.981Z,20.52
2019-05-15T21:05:51.187Z,19.23
2019-05-15T21:08:23.045Z,18.70
2019-05-15T21:10:54.383Z,18.62
2019-05-15T21:13:27.813Z,20.57
2019-05-15T21:16:08.232Z,22.20
2019-05-15T21:18:41.415Z,19.82
2019-05-15T21:21:19.108Z,21.68
2019-05-15T21:23:50.692Z,22.73
2019-05-15T21:26:22.035Z,20.65
2019-05-15T21:28:53.536Z,20.37
2019-05-15T21:31:24.837Z,20.48
2019-05-15T21:33:56.233Z,20.10
2019-05-15T21:36:28.280Z,21.68
2019-05-15T21:39:08.748Z,20.43
2019-05-15T21:41:40.233Z,20.10
2019-05-15T21:44:11.521Z,20.62
2019-05-15T21:46:44.507Z,20.60
2019-05-15T21:49:16.091Z,21.17
2019-05-15T21:51:47.968Z,22.73
2019-05-15T21:54:19.460Z,22.62
2019-05-15T21:57:04.435Z,23.25
2019-05-15T21:59:23.989Z,21.93
2019-05-15T22:01:55.583Z,24.37
2019-05-15T22:04:28.111Z,25.43
2019-05-15T22:07:00.196Z,22.25
2019-05-15T22:09:31.861Z,29.35
2019-05-15T22:12:03.714Z,29.05
2019-05-15T22:14:37.895Z,27.27
2019-05-15T22:17:09.316Z,26.52
2019-05-15T22:19:41.861Z,25.23
2019-05-15T22:22:13.623Z,28.02
2019-05-15T22:24:45.061Z,26.48
2019-05-15T22:27:18.075Z,28.12
2019-05-15T22:29:49.717Z,29.52
2019-05-15T22:32:23.524Z,30.08
2019-05-15T22:35:06.183Z,29.10
2019-05-15T22:37:29.444Z,29.12
2019-05-15T22:40:01.217Z,28.98
2019-05-15T22:42:34.441Z,28.95
2019-05-15T22:45:11.542Z,30.62
2019-05-15T22:47:42.593Z,31.17
2019-05-15T22:50:14.626Z,29.72
2019-05-15T22:52:45.955Z,32.63
2019-05-15T22:55:18.420Z,30.08
2019-05-15T22:57:49.898Z,32.60
2019-05-15T23:00:21.119Z,30.43
2019-05-15T23:02:52.799Z,32.08
2019-05-15T23:05:28.421Z,34.63
2019-05-15T23:07:58.971Z,34.03
2019-05-15T23:10:29.941Z,36.20
2019-05-15T23:13:01.466Z,34.45
2019-05-15T23:15:33.248Z,35.52
2019-05-15T23:18:05.166Z,36.28
2019-05-15T23:20:38.770Z,33.15
2019-05-15T23:23:09.901Z,35.25
2019-05-15T23:25:42.303Z,33.92
2019-05-15T23:28:13.735Z,34.73
2019-05-15T23:30:48.397Z,34.67
2019-05-15T23:33:19.215Z,35.15
2019-05-15T23:35:50.463Z,37.08
2019-05-15T23:38:22.216Z,37.93
2019-05-15T23:40:53.565Z,36.63
2019-05-15T23:43:25.512Z,34.95
2019-05-15T23:45:58.751Z,36.65
2019-05-15T23:48:29.739Z,37.28
2019-05-15T23:51:02.136Z,38.33
2019-05-15T23:53:35.275Z,35.43
2019-05-15T23:56:09.180Z,35.20
2019-05-15T23:58:39.758Z,35.43
